createdAt,value
2018-07-23T00:01:50.937Z,100975.13
2018-07-23T00:03:55.665Z,100971.25
2018-07-23T00:06:00.572Z,100970.73
2018-07-23T00:08:05.833Z,100975.11
2018-07-23T00:10:10.600Z,100977.71
2018-07-23T00:12:15.348Z,100975.89
2018-07-23T00:14:20.214Z,100967.19
2018-07-23T00:16:24.954Z,100975.87
2018-07-23T00:18:29.722Z,100975.51
2018-07-23T00:20:34.487Z,100978.52
2018-07-23T00:22:39.312Z,100966.47
2018-07-23T00:24:44.087Z,100973.05
2018-07-23T00:26:48.941Z,100977.43
2018-07-23T00:28:53.704Z,100974.66
2018-07-23T00:30:58.403Z,100972.77
2018-07-23T00:33:03.153Z,100978.80
2018-07-23T00:35:07.934Z,100979.99
2018-07-23T00:37:12.649Z,100979.20
2018-07-23T00:39:17.490Z,100983.48
2018-07-23T00:41:22.178Z,100981.59
2018-07-23T00:43:26.946Z,100979.75
2018-07-23T00:45:31.770Z,100978.46
2018-07-23T00:47:36.486Z,100974.59
2018-07-23T00:49:41.319Z,100979.31
2018-07-23T00:51:46.134Z,100979.44
2018-07-23T00:53:50.809Z,100980.20
2018-07-23T00:55:55.503Z,100983.07
2018-07-23T00:58:00.229Z,100982.14
2018-07-23T01:00:05.490Z,100976.00
2018-07-23T01:02:10.205Z,100979.09
2018-07-23T01:04:14.927Z,100983.72
2018-07-23T01:06:19.749Z,100977.79
2018-07-23T01:08:24.521Z,100983.46
2018-07-23T01:10:29.309Z,100980.61
2018-07-23T01:12:35.063Z,100982.99
2018-07-23T01:14:39.882Z,100982.06
2018-07-23T01:16:44.752Z,100983.95
2018-07-23T01:18:49.507Z,100980.69
2018-07-23T01:20:54.252Z,100983.73
2018-07-23T01:22:58.966Z,100981.84
2018-07-23T01:25:03.789Z,100983.57
2018-07-23T01:27:08.692Z,100979.05
2018-07-23T01:29:13.125Z,100974.94
2018-07-23T01:31:18.347Z,100981.78
2018-07-23T01:33:22.707Z,100979.54
2018-07-23T01:35:27.430Z,100984.03
2018-07-23T01:37:32.230Z,100987.06
2018-07-23T01:39:36.969Z,100985.69
2018-07-23T01:41:41.658Z,100983.39
2018-07-23T01:43:46.373Z,100960.53
2018-07-23T01:45:51.077Z,100981.92
2018-07-23T01:47:55.972Z,100980.90
2018-07-23T01:50:00.927Z,100981.75
2018-07-23T01:52:06.127Z,100984.75
2018-07-23T01:54:11.027Z,100980.84
2018-07-23T01:56:15.815Z,100984.38
2018-07-23T01:58:20.573Z,100981.70
2018-07-23T02:00:25.842Z,100977.30
2018-07-23T02:02:30.565Z,100982.47
2018-07-23T02:04:38.509Z,100981.00
2018-07-23T02:06:43.563Z,100986.25
2018-07-23T02:08:48.364Z,100985.09
2018-07-23T02:10:53.112Z,100992.39
2018-07-23T02:12:57.896Z,100988.37
2018-07-23T02:15:02.651Z,100986.13
2018-07-23T02:17:07.511Z,100985.92
2018-07-23T02:19:12.248Z,100989.70
2018-07-23T02:21:16.974Z,100987.70
2018-07-23T02:23:21.700Z,100990.09
2018-07-23T02:25:26.505Z,100997.52
2018-07-23T02:27:31.321Z,100996.47
2018-07-23T02:29:36.063Z,100994.19
2018-07-23T02:31:40.815Z,100997.17
2018-07-23T02:33:45.562Z,100994.28
2018-07-23T02:35:50.242Z,100994.70
2018-07-23T02:37:54.945Z,100999.74
2018-07-23T02:39:59.681Z,100998.30
2018-07-23T02:42:04.471Z,101003.55
2018-07-23T02:44:09.319Z,101001.80
2018-07-23T02:46:14.040Z,100998.36
2018-07-23T02:48:18.781Z,101002.62
2018-07-23T02:50:23.537Z,100999.52
2018-07-23T02:52:28.370Z,101002.98
2018-07-23T02:54:33.089Z,101002.45
2018-07-23T02:56:37.808Z,101005.08
2018-07-23T02:58:42.613Z,101002.91
2018-07-23T03:00:47.393Z,100999.37
2018-07-23T03:02:52.157Z,100997.11
2018-07-23T03:04:56.521Z,101001.03
2018-07-23T03:07:01.531Z,100995.91
2018-07-23T03:09:08.844Z,100999.80
2018-07-23T03:11:13.629Z,101001.97
2018-07-23T03:13:18.382Z,101004.14
2018-07-23T03:15:23.265Z,101003.30
2018-07-23T03:17:27.965Z,101002.48
2018-07-23T03:19:32.688Z,101002.08
2018-07-23T03:21:37.557Z,101004.66
2018-07-23T03:23:42.365Z,101010.75
2018-07-23T03:25:47.063Z,100960.41
2018-07-23T03:27:51.818Z,101012.05
2018-07-23T03:29:56.537Z,101008.18
2018-07-23T03:32:01.237Z,100995.08
2018-07-23T03:34:06.066Z,101011.26
2018-07-23T03:36:10.795Z,101012.98
2018-07-23T03:38:15.569Z,101004.20
2018-07-23T03:40:20.375Z,101012.08
2018-07-23T03:42:25.143Z,101019.02
2018-07-23T03:44:29.833Z,101022.86
2018-07-23T03:46:34.670Z,101019.84
2018-07-23T03:48:39.410Z,101028.50
2018-07-23T03:50:44.227Z,101023.28
2018-07-23T03:52:48.949Z,101028.14
2018-07-23T03:54:53.671Z,101029.35
2018-07-23T03:56:58.501Z,101029.75
2018-07-23T03:59:03.975Z,101033.19
2018-07-23T04:01:09.039Z,101036.21
2018-07-23T04:03:13.897Z,101036.18
2018-07-23T04:05:18.600Z,101034.79
2018-07-23T04:07:23.470Z,101035.30
2018-07-23T04:09:28.242Z,101033.61
2018-07-23T04:11:32.993Z,101033.06
2018-07-23T04:13:37.487Z,101035.64
2018-07-23T04:15:42.268Z,101037.03
2018-07-23T04:17:51.666Z,101031.89
2018-07-23T04:19:56.444Z,101034.27
2018-07-23T04:22:07.768Z,101037.83
2018-07-23T04:24:12.549Z,101035.31
2018-07-23T04:26:20.343Z,101040.94
2018-07-23T04:28:25.140Z,101034.92
2018-07-23T04:30:30.021Z,101035.45
2018-07-23T04:32:34.978Z,101008.83
2018-07-23T04:34:39.789Z,101042.98
2018-07-23T04:36:44.611Z,101039.14
2018-07-23T04:38:49.970Z,101037.05
2018-07-23T04:41:01.897Z,101039.28
2018-07-23T04:43:07.128Z,101041.95
2018-07-23T04:45:12.077Z,101036.44
2018-07-23T04:47:16.934Z,101046.48
2018-07-23T04:49:21.837Z,101047.02
2018-07-23T04:51:26.942Z,101044.44
2018-07-23T04:53:32.365Z,101051.06
2018-07-23T04:55:37.386Z,101048.11
2018-07-23T04:57:42.157Z,101057.32
2018-07-23T04:59:47.008Z,101059.99
2018-07-23T05:01:51.939Z,101056.64
2018-07-23T05:03:56.998Z,101055.88
2018-07-23T05:06:02.317Z,101060.30
2018-07-23T05:08:07.395Z,101062.56
2018-07-23T05:10:12.600Z,101059.16
2018-07-23T05:12:17.966Z,101055.39
2018-07-23T05:14:22.826Z,101056.76
2018-07-23T05:16:27.672Z,101053.81
2018-07-23T05:18:32.733Z,101055.14
2018-07-23T05:20:37.548Z,101057.86
2018-07-23T05:22:42.749Z,101057.91
2018-07-23T05:24:48.762Z,101060.17
2018-07-23T05:26:53.605Z,101058.02
2018-07-23T05:28:58.681Z,101065.87
2018-07-23T05:31:03.872Z,101051.90
2018-07-23T05:33:09.057Z,101066.42
2018-07-23T05:35:13.641Z,101067.27
2018-07-23T05:37:18.520Z,101063.38
2018-07-23T05:39:23.518Z,101072.10
2018-07-23T05:41:28.483Z,101067.28
2018-07-23T05:43:33.516Z,101069.45
2018-07-23T05:45:38.527Z,101066.05
2018-07-23T05:47:43.302Z,101066.47
2018-07-23T05:49:48.361Z,101065.14
2018-07-23T05:51:53.441Z,101069.44
2018-07-23T05:53:58.254Z,101068.55
2018-07-23T05:56:03.159Z,101069.03
2018-07-23T05:58:08.155Z,101069.05
2018-07-23T06:00:13.086Z,101066.02
2018-07-23T06:02:21.461Z,101073.02
2018-07-23T06:04:26.210Z,101072.17
2018-07-23T06:06:30.658Z,101073.64
2018-07-23T06:08:35.606Z,101068.86
2018-07-23T06:10:40.571Z,101066.22
2018-07-23T06:12:45.395Z,101070.20
2018-07-23T06:15:53.470Z,101069.73
2018-07-23T06:17:58.231Z,101073.66
2018-07-23T06:20:02.989Z,101071.92
2018-07-23T06:22:07.907Z,101073.20
2018-07-23T06:24:12.754Z,101067.47
2018-07-23T06:26:17.680Z,101073.16
2018-07-23T06:28:22.730Z,101069.23
2018-07-23T06:30:27.663Z,101071.00
2018-07-23T06:32:32.682Z,101067.55
2018-07-23T06:34:37.768Z,101075.39
2018-07-23T06:36:42.529Z,101077.67
2018-07-23T06:38:47.251Z,101079.84
2018-07-23T06:40:52.135Z,101074.70
2018-07-23T06:42:56.989Z,101075.11
2018-07-23T06:45:01.965Z,101079.52
2018-07-23T06:47:06.848Z,101086.03
2018-07-23T06:49:11.687Z,101085.61
2018-07-23T06:51:16.505Z,101087.80
2018-07-23T06:53:21.270Z,101089.44
2018-07-23T06:55:26.193Z,101090.73
2018-07-23T06:57:31.068Z,101091.23
2018-07-23T06:59:36.339Z,101093.02
2018-07-23T07:01:41.181Z,101086.98
2018-07-23T07:03:46.042Z,101089.64
2018-07-23T07:05:50.784Z,101082.31
2018-07-23T07:07:55.494Z,101084.08
2018-07-23T07:10:02.373Z,101088.05
2018-07-23T07:12:07.523Z,101093.33
2018-07-23T07:14:12.356Z,101093.51
2018-07-23T07:16:17.130Z,101091.39
2018-07-23T07:18:21.877Z,101099.38
2018-07-23T07:20:26.736Z,101097.76
2018-07-23T07:22:31.567Z,101102.20
2018-07-23T07:24:36.396Z,101103.61
2018-07-23T07:26:41.452Z,101105.70
2018-07-23T07:28:46.621Z,101103.92
2018-07-23T07:30:51.418Z,101106.45
2018-07-23T07:32:56.143Z,101102.25
2018-07-23T07:35:00.934Z,101103.13
2018-07-23T07:37:06.053Z,101103.20
2018-07-23T07:39:12.689Z,101097.69
2018-07-23T07:41:17.652Z,101098.60
2018-07-23T07:43:22.466Z,101096.88
2018-07-23T07:45:27.230Z,101098.20
2018-07-23T07:47:32.230Z,101102.20
2018-07-23T07:49:36.978Z,101090.86
2018-07-23T07:51:41.784Z,101097.39
2018-07-23T07:53:46.617Z,101095.19
2018-07-23T07:55:51.392Z,101095.65
2018-07-23T07:57:56.718Z,101095.20
2018-07-23T08:00:01.622Z,101086.48
2018-07-23T08:02:06.555Z,101095.19
2018-07-23T08:04:11.288Z,101094.31
2018-07-23T08:06:16.022Z,101093.02
2018-07-23T08:08:20.825Z,101092.14
2018-07-23T08:10:25.799Z,101096.91
2018-07-23T08:12:30.879Z,101098.27
2018-07-23T08:14:35.520Z,101101.30
2018-07-23T08:16:40.400Z,101101.30
2018-07-23T08:18:45.318Z,101100.85
2018-07-23T08:20:56.321Z,101105.68
2018-07-23T08:23:12.828Z,101095.63
2018-07-23T08:25:20.103Z,101095.66
2018-07-23T08:27:25.968Z,101095.14
2018-07-23T08:29:32.913Z,101100.89
2018-07-23T08:31:39.571Z,101098.70
2018-07-23T08:33:44.469Z,101103.92
2018-07-23T08:35:51.238Z,101106.10
2018-07-23T08:37:56.149Z,101107.42
2018-07-23T08:40:01.100Z,101103.04
2018-07-23T08:42:06.041Z,101110.41
2018-07-23T08:44:11.580Z,101108.61
2018-07-23T08:46:16.706Z,101102.61
2018-07-23T08:48:21.408Z,101101.74
2018-07-23T08:50:26.865Z,101100.85
2018-07-23T08:52:31.747Z,101101.72
2018-07-23T08:54:36.661Z,101097.38
2018-07-23T08:56:41.402Z,101105.20
2018-07-23T08:58:46.202Z,101109.06
2018-07-23T09:00:50.910Z,101106.11
2018-07-23T09:02:55.676Z,101105.22
2018-07-23T09:05:00.437Z,101102.16
2018-07-23T09:07:05.156Z,101111.78
2018-07-23T09:09:11.527Z,101109.17
2018-07-23T09:11:16.453Z,101110.03
2018-07-23T09:13:21.418Z,101104.30
2018-07-23T09:15:26.228Z,101107.74
2018-07-23T09:17:30.913Z,101116.47
2018-07-23T09:19:35.972Z,101110.35
2018-07-23T09:21:40.693Z,101114.27
2018-07-23T09:23:45.444Z,101114.66
2018-07-23T09:25:52.472Z,101114.73
2018-07-23T09:27:57.253Z,101113.36
2018-07-23T09:30:02.372Z,101112.02
2018-07-23T09:32:07.505Z,101109.41
2018-07-23T09:34:12.305Z,101101.55
2018-07-23T09:36:17.131Z,101109.43
2018-07-23T09:38:23.234Z,101109.93
2018-07-23T09:40:28.137Z,101110.28
2018-07-23T09:42:32.842Z,101110.22
2018-07-23T09:44:37.523Z,101106.81
2018-07-23T09:46:42.359Z,101109.01
2018-07-23T09:48:47.237Z,101105.45
2018-07-23T09:50:52.214Z,101105.31
2018-07-23T09:52:57.188Z,101105.80
2018-07-23T09:55:02.015Z,101099.62
2018-07-23T09:57:07.105Z,101097.66
2018-07-23T09:59:12.045Z,101103.75
2018-07-23T10:01:19.666Z,101105.66
2018-07-23T10:03:24.508Z,101105.02
2018-07-23T10:05:29.425Z,101108.48
2018-07-23T10:07:34.152Z,101105.63
2018-07-23T10:09:38.874Z,101104.52
2018-07-23T10:11:43.907Z,101098.84
2018-07-23T10:13:48.680Z,101104.50
2018-07-23T10:15:53.447Z,101103.58
2018-07-23T10:17:59.145Z,101092.44
2018-07-23T10:20:04.362Z,101098.66
2018-07-23T10:22:10.034Z,101090.02
2018-07-23T10:24:14.298Z,101096.72
2018-07-23T10:26:19.363Z,101078.41
2018-07-23T10:28:24.439Z,101082.59
2018-07-23T10:30:29.740Z,101088.17
2018-07-23T10:32:35.045Z,101094.52
2018-07-23T10:34:39.948Z,101098.16
2018-07-23T10:36:44.821Z,101100.74
2018-07-23T10:38:49.590Z,101099.19
2018-07-23T10:40:54.390Z,101100.60
2018-07-23T10:42:59.090Z,101096.06
2018-07-23T10:45:04.938Z,101099.25
2018-07-23T10:47:11.466Z,101096.42
2018-07-23T10:49:16.431Z,101098.08
2018-07-23T10:51:21.217Z,101090.64
2018-07-23T10:53:26.086Z,101092.31
2018-07-23T10:55:30.900Z,101087.84
2018-07-23T10:57:35.804Z,101090.03
2018-07-23T10:59:40.686Z,101079.95
2018-07-23T11:01:45.560Z,101089.45
2018-07-23T11:03:50.521Z,101101.28
2018-07-23T11:05:55.427Z,101093.11
2018-07-23T11:08:00.356Z,101082.75
2018-07-23T11:10:05.642Z,101082.70
2018-07-23T11:12:10.440Z,101074.20
2018-07-23T11:14:15.343Z,101085.40
2018-07-23T11:16:20.092Z,101084.97
2018-07-23T11:18:24.895Z,101088.51
2018-07-23T11:20:29.688Z,101080.41
2018-07-23T11:22:34.674Z,101071.46
2018-07-23T11:24:45.389Z,101080.66
2018-07-23T11:26:45.271Z,101077.66
2018-07-23T11:28:50.103Z,101069.40
2018-07-23T11:30:55.495Z,101069.45
2018-07-23T11:33:00.425Z,101076.09
2018-07-23T11:35:05.539Z,101072.99
2018-07-23T11:37:10.531Z,101073.33
2018-07-23T11:39:15.341Z,101071.16
2018-07-23T11:41:20.236Z,101067.49
2018-07-23T11:43:25.042Z,101071.34
2018-07-23T11:45:30.735Z,101076.97
2018-07-23T11:47:35.612Z,101076.20
2018-07-23T11:49:40.462Z,101067.42
2018-07-23T11:51:45.260Z,101069.76
2018-07-23T11:53:49.742Z,101070.16
2018-07-23T11:55:54.688Z,101071.53
2018-07-23T11:57:59.456Z,101073.86
2018-07-23T12:00:04.485Z,101080.98
2018-07-23T12:02:09.986Z,101064.02
2018-07-23T12:04:14.870Z,101079.48
2018-07-23T12:06:19.600Z,101070.91
2018-07-23T12:08:24.379Z,101060.58
2018-07-23T12:10:29.115Z,101058.53
2018-07-23T12:12:34.829Z,101064.70
2018-07-23T12:14:41.913Z,101069.44
2018-07-23T12:16:46.785Z,101063.69
2018-07-23T12:18:52.321Z,101064.11
2018-07-23T12:20:57.281Z,101059.12
2018-07-23T12:23:02.027Z,101055.66
2018-07-23T12:25:07.334Z,101051.23
2018-07-23T12:27:12.431Z,101049.88
2018-07-23T12:29:17.198Z,101046.00
2018-07-23T12:31:22.068Z,101055.58
2018-07-23T12:33:27.024Z,101055.39
2018-07-23T12:35:33.299Z,101049.61
2018-07-23T12:37:38.393Z,101061.11
2018-07-23T12:39:43.278Z,101051.92
2018-07-23T12:41:47.968Z,101060.58
2018-07-23T12:43:52.820Z,101063.66
2018-07-23T12:45:57.744Z,101057.65
2018-07-23T12:48:05.642Z,101054.85
2018-07-23T12:50:10.649Z,101050.67
2018-07-23T12:52:15.391Z,101046.75
2018-07-23T12:54:20.276Z,101049.00
2018-07-23T12:56:25.162Z,101041.06
2018-07-23T12:58:29.980Z,101047.60
2018-07-23T13:00:34.703Z,101041.58
2018-07-23T13:02:40.776Z,101043.42
2018-07-23T13:04:45.524Z,101040.16
2018-07-23T13:06:50.316Z,101038.80
2018-07-23T13:08:55.101Z,101036.19
2018-07-23T13:10:59.796Z,101036.91
2018-07-23T13:13:04.659Z,101043.04
2018-07-23T13:15:09.429Z,101041.97
2018-07-23T13:17:15.151Z,101038.99
2018-07-23T13:19:20.094Z,101033.70
2018-07-23T13:21:25.056Z,101036.58
2018-07-23T13:23:29.826Z,101037.70
2018-07-23T13:25:34.684Z,101042.71
2018-07-23T13:27:39.505Z,101042.39
2018-07-23T13:29:44.362Z,101037.34
2018-07-23T13:31:49.563Z,101031.76
2018-07-23T13:33:54.514Z,101028.83
2018-07-23T13:35:59.407Z,101044.50
2018-07-23T13:38:04.398Z,101025.20
2018-07-23T13:40:10.741Z,101036.19
2018-07-23T13:42:18.575Z,101029.23
2018-07-23T13:44:23.333Z,101032.94
2018-07-23T13:46:28.283Z,101034.25
2018-07-23T13:48:32.965Z,101028.75
2018-07-23T13:50:37.828Z,101027.39
2018-07-23T13:52:42.974Z,101017.63
2018-07-23T13:54:47.793Z,101018.09
2018-07-23T13:56:52.500Z,101022.48
2018-07-23T13:58:57.683Z,101022.69
2018-07-23T14:01:03.347Z,101022.61
2018-07-23T14:03:08.414Z,101018.56
2018-07-23T14:05:13.311Z,101012.94
2018-07-23T14:07:18.310Z,101013.88
2018-07-23T14:09:23.385Z,101014.16
2018-07-23T14:11:28.390Z,101013.68
2018-07-23T14:13:33.551Z,101005.55
2018-07-23T14:15:38.623Z,101013.37
2018-07-23T14:17:43.437Z,101009.80
2018-07-23T14:19:48.445Z,101003.90
2018-07-23T14:21:53.220Z,101014.68
2018-07-23T14:23:58.562Z,101005.75
2018-07-23T14:26:03.290Z,101011.28
2018-07-23T14:28:08.093Z,101016.70
2018-07-23T14:30:12.900Z,101009.48
2018-07-23T14:32:17.658Z,101008.09
2018-07-23T14:34:22.521Z,101007.27
2018-07-23T14:36:27.408Z,101002.81
2018-07-23T14:38:32.194Z,101001.59
2018-07-23T14:40:36.975Z,101000.78
2018-07-23T14:42:41.869Z,101007.33
2018-07-23T14:44:46.895Z,101002.55
2018-07-23T14:46:51.818Z,101000.94
2018-07-23T14:48:56.834Z,101000.49
2018-07-23T14:51:01.822Z,100997.54
2018-07-23T14:53:06.619Z,100994.06
2018-07-23T14:55:11.503Z,100988.78
2018-07-23T14:57:16.861Z,100990.97
2018-07-23T14:59:21.655Z,100993.42
2018-07-23T15:01:26.677Z,100983.62
2018-07-23T15:03:34.051Z,100994.19
2018-07-23T15:05:38.844Z,100979.26
2018-07-23T15:07:43.780Z,100985.33
2018-07-23T15:09:48.659Z,100985.90
2018-07-23T15:11:53.402Z,100984.05
2018-07-23T15:14:00.447Z,100986.47
2018-07-23T15:16:05.372Z,100983.25
2018-07-23T15:18:11.250Z,100969.14
2018-07-23T15:20:16.410Z,100980.80
2018-07-23T15:22:21.674Z,100979.05
2018-07-23T15:24:32.069Z,100971.78
2018-07-23T15:26:47.810Z,100977.03
2018-07-23T15:28:54.623Z,100987.70
2018-07-23T15:30:59.592Z,100980.29
2018-07-23T15:33:04.416Z,100983.55
2018-07-23T15:35:09.412Z,100978.19
2018-07-23T15:37:16.211Z,100983.73
2018-07-23T15:39:21.265Z,100976.78
2018-07-23T15:41:26.097Z,100981.59
2018-07-23T15:43:31.111Z,100977.52
2018-07-23T15:45:37.441Z,100971.91
2018-07-23T15:47:43.079Z,100971.25
2018-07-23T15:49:47.836Z,100972.16
2018-07-23T15:54:15.497Z,100969.76
2018-07-23T15:56:28.759Z,100970.22
2018-07-23T15:58:34.443Z,100966.53
2018-07-23T16:00:39.323Z,100969.06
2018-07-23T16:02:44.063Z,100963.33
2018-07-23T16:04:48.961Z,100973.73
2018-07-23T16:06:53.767Z,100962.41
2018-07-23T16:08:58.760Z,100963.04
2018-07-23T16:11:03.924Z,100966.01
2018-07-23T16:13:08.638Z,100973.90
2018-07-23T16:15:14.253Z,100956.11
2018-07-23T16:17:18.968Z,100962.78
2018-07-23T16:19:23.693Z,100960.52
2018-07-23T16:21:28.417Z,100959.00
2018-07-23T16:23:33.182Z,100960.92
2018-07-23T16:25:37.533Z,100957.78
2018-07-23T16:27:42.166Z,100960.05
2018-07-23T16:29:46.939Z,100960.75
2018-07-23T16:31:51.658Z,100956.86
2018-07-23T16:33:56.602Z,100955.77
2018-07-23T16:36:01.481Z,100955.64
2018-07-23T16:38:06.503Z,100955.36
2018-07-23T16:40:11.486Z,100957.69
2018-07-23T16:42:16.492Z,100956.25
2018-07-23T16:44:21.307Z,100957.88
2018-07-23T16:46:26.159Z,100960.23
2018-07-23T16:48:30.893Z,100957.74
2018-07-23T16:50:35.654Z,100964.19
2018-07-23T16:52:40.518Z,100953.70
2018-07-23T16:54:45.452Z,100953.41
2018-07-23T16:56:50.422Z,100957.47
2018-07-23T16:58:55.404Z,100954.91
2018-07-23T17:01:00.191Z,100955.53
2018-07-23T17:03:05.039Z,100953.13
2018-07-23T17:05:09.830Z,100954.20
2018-07-23T17:07:14.632Z,100951.41
2018-07-23T17:09:19.269Z,100955.25
2018-07-23T17:11:24.013Z,100957.31
2018-07-23T17:13:28.794Z,100955.78
2018-07-23T17:15:33.658Z,100952.78
2018-07-23T17:17:39.273Z,100954.56
2018-07-23T17:19:44.286Z,100952.84
2018-07-23T17:21:50.465Z,100955.54
2018-07-23T17:23:55.273Z,100954.91
2018-07-23T17:26:00.203Z,100956.78
2018-07-23T17:28:05.013Z,100955.47
2018-07-23T17:30:09.965Z,100962.40
2018-07-23T17:32:15.199Z,100957.86
2018-07-23T17:34:19.983Z,100958.70
2018-07-23T17:36:25.491Z,100959.80
2018-07-23T17:38:30.986Z,100956.28
2018-07-23T17:40:35.815Z,100959.26
2018-07-23T17:42:43.211Z,100949.88
2018-07-23T17:44:48.623Z,100956.56
2018-07-23T17:46:54.029Z,100947.36
2018-07-23T17:48:59.191Z,100955.94
2018-07-23T17:51:04.435Z,100956.64
2018-07-23T17:53:09.273Z,100955.47
2018-07-23T17:55:14.287Z,100954.45
2018-07-23T17:57:19.518Z,100951.91
2018-07-23T17:59:24.507Z,100951.77
2018-07-23T18:01:33.292Z,100948.44
2018-07-23T18:03:38.395Z,100950.70
2018-07-23T18:05:44.974Z,100949.98
2018-07-23T18:07:53.017Z,100943.67
2018-07-23T18:09:58.423Z,100944.72
2018-07-23T18:12:03.560Z,100942.51
2018-07-23T18:14:08.962Z,100943.42
2018-07-23T18:16:14.059Z,100940.81
2018-07-23T18:18:18.500Z,100945.48
2018-07-23T18:20:23.479Z,100940.96
2018-07-23T18:22:28.621Z,100942.00
2018-07-23T18:24:34.259Z,100941.38
2018-07-23T18:26:38.986Z,100947.50
2018-07-23T18:28:44.494Z,100949.50
2018-07-23T18:30:49.721Z,100940.27
2018-07-23T18:32:55.395Z,100945.28
2018-07-23T18:35:02.217Z,100945.39
2018-07-23T18:37:07.732Z,100943.34
2018-07-23T18:39:13.713Z,100938.24
2018-07-23T18:41:19.105Z,100936.16
2018-07-23T18:43:26.711Z,100942.02
2018-07-23T18:45:37.344Z,100941.74
2018-07-23T18:47:43.860Z,100942.64
2018-07-23T18:49:59.893Z,100934.65
2018-07-23T18:52:06.540Z,100939.53
2018-07-23T18:54:12.667Z,100939.21
2018-07-23T18:56:18.359Z,100941.46
2018-07-23T18:58:24.603Z,100922.50
2018-07-23T19:00:33.312Z,100937.91
2018-07-23T19:02:41.280Z,100935.83
2018-07-23T19:04:47.114Z,100935.08
2018-07-23T19:06:53.117Z,100938.69
2018-07-23T19:08:58.666Z,100935.25
2018-07-23T19:11:04.511Z,100932.72
2018-07-23T19:13:09.458Z,100939.81
2018-07-23T19:15:14.168Z,100934.69
2018-07-23T19:17:19.082Z,100935.66
2018-07-23T19:19:24.113Z,100934.91
2018-07-23T19:21:29.502Z,100933.70
2018-07-23T19:23:34.674Z,100943.06
2018-07-23T19:25:39.658Z,100942.33
2018-07-23T19:27:45.263Z,100948.13
2018-07-23T19:29:50.604Z,100941.66
2018-07-23T19:31:55.733Z,100949.23
2018-07-23T19:34:01.623Z,100944.53
2018-07-23T19:36:08.117Z,100942.84
2018-07-23T19:38:16.056Z,100945.98
2018-07-23T19:40:21.346Z,100921.70
2018-07-23T19:42:28.304Z,100949.66
2018-07-23T19:44:33.215Z,100954.97
2018-07-23T19:46:38.442Z,100948.05
2018-07-23T19:48:44.537Z,100949.84
2018-07-23T19:50:52.823Z,100955.63
2018-07-23T19:52:58.412Z,100953.51
2018-07-23T19:55:05.123Z,100952.27
2018-07-23T19:57:11.929Z,100953.68
2018-07-23T19:59:17.097Z,100952.91
2018-07-23T20:01:26.436Z,100951.20
2018-07-23T20:03:31.765Z,100953.88
2018-07-23T20:05:38.169Z,100953.48
2018-07-23T20:07:43.743Z,100950.42
2018-07-23T20:09:50.108Z,100950.50
2018-07-23T20:11:55.896Z,100935.78
2018-07-23T20:14:04.575Z,100958.95
2018-07-23T20:16:16.872Z,100955.92
2018-07-23T20:18:22.932Z,100951.63
2018-07-23T20:20:27.977Z,100952.11
2018-07-23T20:22:32.800Z,100951.25
2018-07-23T20:24:37.661Z,100951.73
2018-07-23T20:26:42.804Z,100931.70
2018-07-23T20:28:55.036Z,100945.25
2018-07-23T20:30:59.953Z,100950.07
2018-07-23T20:33:05.023Z,100946.60
2018-07-23T20:35:11.092Z,100959.30
2018-07-23T20:37:16.181Z,100956.71
2018-07-23T20:39:20.891Z,100954.54
2018-07-23T20:41:25.931Z,100956.73
2018-07-23T20:43:31.857Z,100951.97
2018-07-23T20:45:36.908Z,100951.13
2018-07-23T20:47:43.679Z,100954.22
2018-07-23T20:49:49.095Z,100959.50
2018-07-23T20:51:54.045Z,100955.57
2018-07-23T20:53:59.040Z,100960.84
2018-07-23T20:56:04.186Z,100951.27
2018-07-23T20:58:09.435Z,100953.91
2018-07-23T21:00:14.277Z,100946.95
2018-07-23T21:02:19.168Z,100950.02
2018-07-23T21:04:24.001Z,100946.09
2018-07-23T21:06:29.639Z,100946.55
2018-07-23T21:08:34.555Z,100938.29
2018-07-23T21:10:39.494Z,100945.30
2018-07-23T21:12:44.744Z,100937.02
2018-07-23T21:14:49.741Z,100947.09
2018-07-23T21:16:54.770Z,100949.73
2018-07-23T21:19:00.725Z,100946.26
2018-07-23T21:21:05.518Z,100955.91
2018-07-23T21:23:10.362Z,100955.49
2018-07-23T21:25:15.255Z,100951.14
2018-07-23T21:27:20.031Z,100957.70
2018-07-23T21:29:25.212Z,100956.80
2018-07-23T21:31:30.410Z,100953.33
2018-07-23T21:33:35.194Z,100960.31
2018-07-23T21:35:40.233Z,100952.47
2018-07-23T21:37:46.762Z,100957.28
2018-07-23T21:39:51.640Z,100955.55
2018-07-23T21:41:56.942Z,100962.98
2018-07-23T21:44:02.194Z,100958.20
2018-07-23T21:46:07.058Z,100956.91
2018-07-23T21:48:12.305Z,100956.92
2018-07-23T21:50:17.216Z,100950.82
2018-07-23T21:52:22.595Z,100953.88
2018-07-23T21:54:27.439Z,100960.00
2018-07-23T21:56:32.214Z,100960.00
2018-07-23T21:58:36.905Z,100960.44
2018-07-23T22:00:41.845Z,100955.64
2018-07-23T22:02:56.826Z,100958.27
2018-07-23T22:05:02.474Z,100956.52
2018-07-23T22:07:07.611Z,100954.36
2018-07-23T22:09:13.650Z,100956.48
2018-07-23T22:11:22.053Z,100955.17
2018-07-23T22:13:27.046Z,100958.67
2018-07-23T22:15:32.417Z,100957.80
2018-07-23T22:17:37.536Z,100962.16
2018-07-23T22:19:43.584Z,100963.47
2018-07-23T22:21:48.684Z,100960.86
2018-07-23T22:23:54.183Z,100965.66
2018-07-23T22:25:58.989Z,100958.25
2018-07-23T22:28:03.833Z,100964.79
2018-07-23T22:30:08.789Z,100961.30
2018-07-23T22:32:13.691Z,100946.92
2018-07-23T22:34:18.600Z,100965.23
2018-07-23T22:36:23.432Z,100963.05
2018-07-23T22:38:28.205Z,100960.43
2018-07-23T22:40:33.303Z,100959.56
2018-07-23T22:42:39.004Z,100956.51
2018-07-23T22:44:47.774Z,100936.42
2018-07-23T22:46:52.677Z,100954.77
2018-07-23T22:48:57.464Z,100885.84
2018-07-23T22:51:02.278Z,100960.39
2018-07-23T22:53:07.152Z,100959.08
2018-07-23T22:55:11.839Z,100953.86
2018-07-23T22:57:16.449Z,100959.08
2018-07-23T22:59:21.273Z,100956.47
2018-07-23T23:01:25.954Z,100957.34
2018-07-23T23:03:30.701Z,100953.86
2018-07-23T23:05:35.380Z,100949.93
2018-07-23T23:07:40.062Z,100951.23
2018-07-23T23:09:45.584Z,100950.80
2018-07-23T23:11:50.218Z,100954.72
2018-07-23T23:13:54.901Z,100948.14
2018-07-23T23:15:59.739Z,100952.50
2018-07-23T23:18:04.538Z,100949.88
2018-07-23T23:20:09.993Z,100951.18
2018-07-23T23:22:14.778Z,100951.17
2018-07-23T23:24:19.443Z,100953.78
2018-07-23T23:26:24.104Z,100950.73
2018-07-23T23:28:28.811Z,100952.03
2018-07-23T23:30:33.477Z,100951.15
2018-07-23T23:32:38.144Z,100947.66
2018-07-23T23:34:42.781Z,100948.08
2018-07-23T23:36:47.516Z,100946.33
2018-07-23T23:38:52.194Z,100949.81
2018-07-23T23:40:56.869Z,100954.12
2018-07-23T23:43:01.649Z,100951.94
2018-07-23T23:45:06.631Z,100954.10
2018-07-23T23:47:11.446Z,100951.91
2018-07-23T23:49:16.100Z,100934.91
2018-07-23T23:51:21.654Z,100941.88
2018-07-23T23:53:26.406Z,100939.26